sensor_id;sensor_type;location;lat;lon;timestamp;pressure;altitude;pressure_sealevel;temperature;humidity
64844;BME280;51310;52.198;5.422;2023-07-22T00:01:02;101220.13;;;13.86;77.39
64844;BME280;51310;52.198;5.422;2023-07-22T00:03:28;101238.81;;;14.01;77.43
64844;BME280;51310;52.198;5.422;2023-07-22T00:06:06;101220.53;;;13.80;77.63
64844;BME280;51310;52.198;5.422;2023-07-22T00:08:36;101250.84;;;13.95;77.70
64844;BME280;51310;52.198;5.422;2023-07-22T00:11:07;101248.25;;;13.93;77.55
64844;BME280;51310;52.198;5.422;2023-07-22T00:13:34;101240.66;;;13.87;77.90
64844;BME280;51310;52.198;5.422;2023-07-22T00:16:01;101244.94;;;13.90;78.04
64844;BME280;51310;52.198;5.422;2023-07-22T00:18:31;101238.72;;;13.89;78.01
64844;BME280;51310;52.198;5.422;2023-07-22T00:20:57;101232.03;;;13.82;78.03
64844;BME280;51310;52.198;5.422;2023-07-22T00:23:23;101235.28;;;13.87;78.21
64844;BME280;51310;52.198;5.422;2023-07-22T00:25:50;101225.91;;;13.80;78.13
64844;BME280;51310;52.198;5.422;2023-07-22T00:28:16;101237.31;;;13.84;78.24
64844;BME280;51310;52.198;5.422;2023-07-22T00:30:44;101230.25;;;13.83;78.38
64844;BME280;51310;52.198;5.422;2023-07-22T00:33:09;101227.56;;;13.83;78.38
64844;BME280;51310;52.198;5.422;2023-07-22T00:35:35;101223.22;;;13.80;78.47
64844;BME280;51310;52.198;5.422;2023-07-22T00:38:02;101225.91;;;13.80;78.58
64844;BME280;51310;52.198;5.422;2023-07-22T00:40:29;101227.41;;;13.84;78.56
64844;BME280;51310;52.198;5.422;2023-07-22T00:42:57;101229.16;;;13.85;78.42
64844;BME280;51310;52.198;5.422;2023-07-22T00:45:24;101231.63;;;13.88;78.39
64844;BME280;51310;52.198;5.422;2023-07-22T00:47:50;101216.16;;;13.79;78.48
64844;BME280;51310;52.198;5.422;2023-07-22T00:50:16;101213.78;;;13.87;78.32
64844;BME280;51310;52.198;5.422;2023-07-22T00:52:42;101224.09;;;13.93;78.34
64844;BME280;51310;52.198;5.422;2023-07-22T00:55:09;101209.69;;;13.94;78.26
64844;BME280;51310;52.198;5.422;2023-07-22T00:57:36;101204.00;;;13.99;78.11
64844;BME280;51310;52.198;5.422;2023-07-22T01:00:03;101204.09;;;13.98;77.98
64844;BME280;51310;52.198;5.422;2023-07-22T01:02:31;101217.84;;;14.06;78.01
64844;BME280;51310;52.198;5.422;2023-07-22T01:04:57;101173.50;;;13.87;77.84
64844;BME280;51310;52.198;5.422;2023-07-22T01:07:23;101205.16;;;14.08;77.87
64844;BME280;51310;52.198;5.422;2023-07-22T01:09:56;101202.25;;;14.11;77.96
64844;BME280;51310;52.198;5.422;2023-07-22T01:12:23;101207.28;;;14.15;77.89
64844;BME280;51310;52.198;5.422;2023-07-22T01:14:50;101212.47;;;14.19;77.64
64844;BME280;51310;52.198;5.422;2023-07-22T01:17:16;101207.81;;;14.21;77.58
64844;BME280;51310;52.198;5.422;2023-07-22T01:19:43;101195.69;;;14.15;77.63
64844;BME280;51310;52.198;5.422;2023-07-22T01:22:09;101200.97;;;14.16;77.57
64844;BME280;51310;52.198;5.422;2023-07-22T01:24:38;101196.78;;;14.12;77.57
64844;BME280;51310;52.198;5.422;2023-07-22T01:27:06;101190.22;;;14.04;77.90
64844;BME280;51310;52.198;5.422;2023-07-22T01:29:36;101194.84;;;14.02;78.10
64844;BME280;51310;52.198;5.422;2023-07-22T01:32:02;101185.50;;;13.94;78.33
64844;BME280;51310;52.198;5.422;2023-07-22T01:34:28;101165.88;;;13.81;78.41
64844;BME280;51310;52.198;5.422;2023-07-22T01:36:55;101188.63;;;13.88;78.78
64844;BME280;51310;52.198;5.422;2023-07-22T01:39:21;101189.06;;;13.82;78.90
64844;BME280;51310;52.198;5.422;2023-07-22T01:41:47;101170.50;;;13.66;78.98
64844;BME280;51310;52.198;5.422;2023-07-22T01:44:14;101191.22;;;13.77;79.14
64844;BME280;51310;52.198;5.422;2023-07-22T01:46:40;101196.25;;;13.69;79.30
64844;BME280;51310;52.198;5.422;2023-07-22T01:49:11;101194.66;;;13.66;79.40
64844;BME280;51310;52.198;5.422;2023-07-22T01:51:38;101171.38;;;13.54;79.33
64844;BME280;51310;52.198;5.422;2023-07-22T01:54:07;101193.19;;;13.62;79.43
64844;BME280;51310;52.198;5.422;2023-07-22T01:56:35;101187.38;;;13.56;79.58
64844;BME280;51310;52.198;5.422;2023-07-22T01:59:02;101187.72;;;13.51;79.80
64844;BME280;51310;52.198;5.422;2023-07-22T02:01:28;101180.81;;;13.47;79.84
64844;BME280;51310;52.198;5.422;2023-07-22T02:03:54;101153.59;;;13.26;79.86
64844;BME280;51310;52.198;5.422;2023-07-22T02:06:21;101164.16;;;13.29;79.95
64844;BME280;51310;52.198;5.422;2023-07-22T02:08:47;101168.00;;;13.25;80.02
64844;BME280;51310;52.198;5.422;2023-07-22T02:11:13;101174.97;;;13.27;79.93
64844;BME280;51310;52.198;5.422;2023-07-22T02:13:39;101178.72;;;13.25;80.18
64844;BME280;51310;52.198;5.422;2023-07-22T02:16:05;101159.59;;;13.17;80.26
64844;BME280;51310;52.198;5.422;2023-07-22T02:18:31;101175.94;;;13.26;80.33
64844;BME280;51310;52.198;5.422;2023-07-22T02:20:57;101168.22;;;13.22;80.31
64844;BME280;51310;52.198;5.422;2023-07-22T02:23:24;101168.22;;;13.22;80.21
64844;BME280;51310;52.198;5.422;2023-07-22T02:25:51;101158.84;;;13.15;80.23
64844;BME280;51310;52.198;5.422;2023-07-22T02:28:19;101169.47;;;13.16;80.24
64844;BME280;51310;52.198;5.422;2023-07-22T02:30:51;101141.88;;;13.01;80.34
64844;BME280;51310;52.198;5.422;2023-07-22T02:33:19;101166.13;;;13.12;80.17
64844;BME280;51310;52.198;5.422;2023-07-22T02:35:47;101152.59;;;13.01;80.31
64844;BME280;51310;52.198;5.422;2023-07-22T02:38:13;101161.75;;;13.11;80.38
64844;BME280;51310;52.198;5.422;2023-07-22T02:40:40;101162.72;;;13.10;80.50
64844;BME280;51310;52.198;5.422;2023-07-22T02:43:06;101159.16;;;13.10;80.58
64844;BME280;51310;52.198;5.422;2023-07-22T02:45:36;101157.44;;;13.09;80.45
64844;BME280;51310;52.198;5.422;2023-07-22T02:48:03;101156.78;;;13.05;80.51
64844;BME280;51310;52.198;5.422;2023-07-22T02:50:30;101147.44;;;12.98;80.44
64844;BME280;51310;52.198;5.422;2023-07-22T02:52:56;101133.50;;;12.93;80.48
64844;BME280;51310;52.198;5.422;2023-07-22T02:55:22;101153.34;;;13.03;80.68
64844;BME280;51310;52.198;5.422;2023-07-22T02:57:49;101143.25;;;12.94;80.73
64844;BME280;51310;52.198;5.422;2023-07-22T03:00:18;101157.78;;;13.04;80.69
64844;BME280;51310;52.198;5.422;2023-07-22T03:02:53;101137.25;;;12.90;80.68
64844;BME280;51310;52.198;5.422;2023-07-22T03:05:29;101154.44;;;13.01;80.72
64844;BME280;51310;52.198;5.422;2023-07-22T03:07:57;101153.78;;;12.97;80.63
64844;BME280;51310;52.198;5.422;2023-07-22T03:10:24;101141.19;;;12.85;80.55
64844;BME280;51310;52.198;5.422;2023-07-22T03:12:55;101150.97;;;12.86;80.71
64844;BME280;51310;52.198;5.422;2023-07-22T03:15:25;101161.19;;;12.94;80.86
64844;BME280;51310;52.198;5.422;2023-07-22T03:17:52;101169.31;;;12.92;80.85
64844;BME280;51310;52.198;5.422;2023-07-22T03:20:19;101149.88;;;12.76;80.86
64844;BME280;51310;52.198;5.422;2023-07-22T03:22:45;101167.06;;;12.86;80.96
64844;BME280;51310;52.198;5.422;2023-07-22T03:25:15;101149.97;;;12.74;80.97
64844;BME280;51310;52.198;5.422;2023-07-22T03:27:43;101162.88;;;12.82;81.13
64844;BME280;51310;52.198;5.422;2023-07-22T03:30:14;101149.66;;;12.79;81.11
64844;BME280;51310;52.198;5.422;2023-07-22T03:32:45;101145.47;;;12.75;81.25
64844;BME280;51310;52.198;5.422;2023-07-22T03:35:18;101142.44;;;12.66;81.32
64844;BME280;51310;52.198;5.422;2023-07-22T03:37:44;101169.41;;;12.78;81.57
64844;BME280;51310;52.198;5.422;2023-07-22T03:40:11;101170.16;;;12.80;81.53
64844;BME280;51310;52.198;5.422;2023-07-22T03:42:49;101166.72;;;12.78;81.56
64844;BME280;51310;52.198;5.422;2023-07-22T03:45:17;101167.88;;;12.74;81.63
64844;BME280;51310;52.198;5.422;2023-07-22T03:47:45;101176.03;;;12.72;81.73
64844;BME280;51310;52.198;5.422;2023-07-22T03:50:13;101164.66;;;12.68;81.77
64844;BME280;51310;52.198;5.422;2023-07-22T03:52:39;101163.81;;;12.68;81.94
64844;BME280;51310;52.198;5.422;2023-07-22T03:55:05;101152.84;;;12.71;82.05
64844;BME280;51310;52.198;5.422;2023-07-22T03:57:31;101168.94;;;12.71;81.91
64844;BME280;51310;52.198;5.422;2023-07-22T03:59:58;101159.28;;;12.68;81.98
64844;BME280;51310;52.198;5.422;2023-07-22T04:02:24;101160.06;;;12.70;81.92
64844;BME280;51310;52.198;5.422;2023-07-22T04:04:52;101158.63;;;12.65;81.96
64844;BME280;51310;52.198;5.422;2023-07-22T04:07:19;101163.50;;;12.73;81.90
64844;BME280;51310;52.198;5.422;2023-07-22T04:09:45;101143.19;;;12.68;81.96
64844;BME280;51310;52.198;5.422;2023-07-22T04:12:11;101147.72;;;12.68;81.93
64844;BME280;51310;52.198;5.422;2023-07-22T04:14:38;101171.47;;;12.87;81.84
64844;BME280;51310;52.198;5.422;2023-07-22T04:17:05;101162.16;;;12.93;81.84
64844;BME280;51310;52.198;5.422;2023-07-22T04:19:31;101162.81;;;13.09;81.51
64844;BME280;51310;52.198;5.422;2023-07-22T04:21:57;101163.25;;;13.16;81.32
64844;BME280;51310;52.198;5.422;2023-07-22T04:24:23;101173.69;;;13.20;81.09
64844;BME280;51310;52.198;5.422;2023-07-22T04:26:51;101149.53;;;13.20;80.81
64844;BME280;51310;52.198;5.422;2023-07-22T04:29:17;101163.72;;;13.35;80.65
64844;BME280;51310;52.198;5.422;2023-07-22T04:31:43;101166.75;;;13.43;80.30
64844;BME280;51310;52.198;5.422;2023-07-22T04:34:08;101167.16;;;13.50;80.11
64844;BME280;51310;52.198;5.422;2023-07-22T04:36:36;101152.03;;;13.49;79.77
64844;BME280;51310;52.198;5.422;2023-07-22T04:39:03;101146.53;;;13.50;79.58
64844;BME280;51310;52.198;5.422;2023-07-22T04:41:33;101161.56;;;13.66;79.29
64844;BME280;51310;52.198;5.422;2023-07-22T04:43:59;101161.16;;;13.72;79.00
64844;BME280;51310;52.198;5.422;2023-07-22T04:46:25;101163.50;;;13.77;78.80
64844;BME280;51310;52.198;5.422;2023-07-22T04:48:55;101171.00;;;13.84;78.68
64844;BME280;51310;52.198;5.422;2023-07-22T04:51:23;101142.25;;;13.73;78.60
64844;BME280;51310;52.198;5.422;2023-07-22T04:53:49;101149.31;;;13.87;78.49
64844;BME280;51310;52.198;5.422;2023-07-22T04:56:15;101162.84;;;13.99;78.56
64844;BME280;51310;52.198;5.422;2023-07-22T04:58:41;101172.47;;;14.14;78.47
64844;BME280;51310;52.198;5.422;2023-07-22T05:01:07;101179.88;;;14.23;78.51
64844;BME280;51310;52.198;5.422;2023-07-22T05:03:34;101177.69;;;14.28;78.50
64844;BME280;51310;52.198;5.422;2023-07-22T05:06:01;101168.09;;;14.37;78.62
64844;BME280;51310;52.198;5.422;2023-07-22T05:08:27;101171.94;;;14.46;78.52
64844;BME280;51310;52.198;5.422;2023-07-22T05:10:53;101173.00;;;14.56;78.52
64844;BME280;51310;52.198;5.422;2023-07-22T05:13:19;101147.25;;;14.52;78.37
64844;BME280;51310;52.198;5.422;2023-07-22T05:15:45;101167.56;;;14.69;78.50
64844;BME280;51310;52.198;5.422;2023-07-22T05:18:11;101160.59;;;14.66;78.42
64844;BME280;51310;52.198;5.422;2023-07-22T05:20:38;101148.22;;;14.64;78.39
64844;BME280;51310;52.198;5.422;2023-07-22T05:23:05;101159.53;;;14.80;78.33
64844;BME280;51310;52.198;5.422;2023-07-22T05:25:30;101159.19;;;14.85;78.21
64844;BME280;51310;52.198;5.422;2023-07-22T05:27:56;101150.47;;;14.81;77.92
64844;BME280;51310;52.198;5.422;2023-07-22T05:30:22;101171.69;;;14.97;77.84
64844;BME280;51310;52.198;5.422;2023-07-22T05:32:52;101165.09;;;15.01;77.95
64844;BME280;51310;52.198;5.422;2023-07-22T05:35:18;101151.91;;;14.98;77.76
64844;BME280;51310;52.198;5.422;2023-07-22T05:37:44;101169.78;;;15.10;77.76
64844;BME280;51310;52.198;5.422;2023-07-22T05:40:11;101160.50;;;15.14;77.51
64844;BME280;51310;52.198;5.422;2023-07-22T05:42:37;101177.16;;;15.19;77.45
64844;BME280;51310;52.198;5.422;2023-07-22T05:45:03;101172.00;;;15.16;77.46
64844;BME280;51310;52.198;5.422;2023-07-22T05:47:29;101149.69;;;15.03;77.67
64844;BME280;51310;52.198;5.422;2023-07-22T05:49:55;101144.06;;;15.06;77.66
64844;BME280;51310;52.198;5.422;2023-07-22T05:52:22;101155.22;;;15.13;77.42
64844;BME280;51310;52.198;5.422;2023-07-22T05:54:48;101170.81;;;15.20;77.64
64844;BME280;51310;52.198;5.422;2023-07-22T05:57:14;101145.34;;;15.13;77.69
64844;BME280;51310;52.198;5.422;2023-07-22T05:59:40;101177.91;;;15.33;77.66
64844;BME280;51310;52.198;5.422;2023-07-22T06:02:08;101174.25;;;15.34;77.52
64844;BME280;51310;52.198;5.422;2023-07-22T06:04:34;101171.59;;;15.45;77.52
64844;BME280;51310;52.198;5.422;2023-07-22T06:07:00;101181.00;;;15.51;77.42
64844;BME280;51310;52.198;5.422;2023-07-22T06:09:26;101164.25;;;15.47;77.26
64844;BME280;51310;52.198;5.422;2023-07-22T06:11:52;101169.13;;;15.65;76.86
64844;BME280;51310;52.198;5.422;2023-07-22T06:14:17;101173.59;;;15.77;76.77
64844;BME280;51310;52.198;5.422;2023-07-22T06:16:43;101177.25;;;15.87;76.64
64844;BME280;51310;52.198;5.422;2023-07-22T06:19:09;101162.19;;;15.96;76.11
64844;BME280;51310;52.198;5.422;2023-07-22T06:21:35;101145.28;;;16.05;75.77
64844;BME280;51310;52.198;5.422;2023-07-22T06:24:01;101159.81;;;16.25;75.19
64844;BME280;51310;52.198;5.422;2023-07-22T06:26:27;101154.03;;;16.41;74.62
64844;BME280;51310;52.198;5.422;2023-07-22T06:28:53;101164.19;;;16.49;74.09
64844;BME280;51310;52.198;5.422;2023-07-22T06:31:19;101168.44;;;16.62;73.74
64844;BME280;51310;52.198;5.422;2023-07-22T06:33:45;101163.38;;;16.69;73.50
64844;BME280;51310;52.198;5.422;2023-07-22T06:36:11;101171.56;;;16.79;73.27
64844;BME280;51310;52.198;5.422;2023-07-22T06:38:37;101161.09;;;16.97;72.66
64844;BME280;51310;52.198;5.422;2023-07-22T06:41:03;101149.78;;;17.03;72.10
64844;BME280;51310;52.198;5.422;2023-07-22T06:43:29;101139.22;;;17.00;71.87
64844;BME280;51310;52.198;5.422;2023-07-22T06:45:55;101155.06;;;17.04;72.24
64844;BME280;51310;52.198;5.422;2023-07-22T06:48:21;101160.56;;;17.03;72.48
64844;BME280;51310;52.198;5.422;2023-07-22T06:50:50;101156.63;;;17.07;72.18
64844;BME280;51310;52.198;5.422;2023-07-22T06:53:16;101162.94;;;17.17;72.12
64844;BME280;51310;52.198;5.422;2023-07-22T06:55:52;101149.75;;;17.24;72.12
64844;BME280;51310;52.198;5.422;2023-07-22T06:58:20;101132.63;;;17.35;71.55
64844;BME280;51310;52.198;5.422;2023-07-22T07:00:46;101129.03;;;17.55;71.30
64844;BME280;51310;52.198;5.422;2023-07-22T07:03:12;101133.66;;;17.74;70.64
64844;BME280;51310;52.198;5.422;2023-07-22T07:05:37;101156.88;;;18.07;70.49
64844;BME280;51310;52.198;5.422;2023-07-22T07:08:08;101150.81;;;18.25;70.24
64844;BME280;51310;52.198;5.422;2023-07-22T07:10:39;101162.91;;;18.30;70.22
64844;BME280;51310;52.198;5.422;2023-07-22T07:13:05;101154.09;;;18.38;71.14
64844;BME280;51310;52.198;5.422;2023-07-22T07:15:31;101138.41;;;18.22;70.08
64844;BME280;51310;52.198;5.422;2023-07-22T07:17:57;101160.63;;;18.26;69.57
64844;BME280;51310;52.198;5.422;2023-07-22T07:20:23;101134.56;;;18.25;69.82
64844;BME280;51310;52.198;5.422;2023-07-22T07:22:49;101152.84;;;18.62;68.88
64844;BME280;51310;52.198;5.422;2023-07-22T07:25:15;101139.16;;;18.73;68.06
64844;BME280;51310;52.198;5.422;2023-07-22T07:27:41;101140.91;;;18.84;67.55
64844;BME280;51310;52.198;5.422;2023-07-22T07:30:07;101142.78;;;19.03;67.40
64844;BME280;51310;52.198;5.422;2023-07-22T07:32:34;101145.91;;;19.08;66.16
64844;BME280;51310;52.198;5.422;2023-07-22T07:35:00;101151.00;;;19.21;65.96
64844;BME280;51310;52.198;5.422;2023-07-22T07:37:26;101154.56;;;19.21;65.93
64844;BME280;51310;52.198;5.422;2023-07-22T07:39:52;101155.31;;;19.04;65.96
64844;BME280;51310;52.198;5.422;2023-07-22T07:42:18;101158.88;;;19.14;65.87
64844;BME280;51310;52.198;5.422;2023-07-22T07:44:44;101156.59;;;19.09;66.24
64844;BME280;51310;52.198;5.422;2023-07-22T07:47:11;101159.88;;;19.03;66.40
64844;BME280;51310;52.198;5.422;2023-07-22T07:49:37;101163.00;;;18.99;66.00
64844;BME280;51310;52.198;5.422;2023-07-22T07:52:03;101163.88;;;18.89;66.62
64844;BME280;51310;52.198;5.422;2023-07-22T07:54:29;101170.69;;;18.74;67.09
64844;BME280;51310;52.198;5.422;2023-07-22T07:56:55;101155.53;;;18.62;68.27
64844;BME280;51310;52.198;5.422;2023-07-22T07:59:21;101157.13;;;18.74;68.46
64844;BME280;51310;52.198;5.422;2023-07-22T08:01:47;101161.88;;;18.91;68.46
64844;BME280;51310;52.198;5.422;2023-07-22T08:04:13;101135.06;;;18.88;67.47
64844;BME280;51310;52.198;5.422;2023-07-22T08:06:39;101147.31;;;18.92;67.54
64844;BME280;51310;52.198;5.422;2023-07-22T08:09:05;101145.34;;;18.85;66.26
64844;BME280;51310;52.198;5.422;2023-07-22T08:11:31;101146.47;;;18.82;66.17
64844;BME280;51310;52.198;5.422;2023-07-22T08:13:57;101130.66;;;18.78;66.34
64844;BME280;51310;52.198;5.422;2023-07-22T08:16:23;101143.34;;;18.97;65.80
64844;BME280;51310;52.198;5.422;2023-07-22T08:18:50;101142.19;;;18.99;64.98
64844;BME280;51310;52.198;5.422;2023-07-22T08:21:16;101147.47;;;19.10;64.65
64844;BME280;51310;52.198;5.422;2023-07-22T08:23:42;101127.31;;;19.32;63.99
64844;BME280;51310;52.198;5.422;2023-07-22T08:26:11;101152.88;;;19.67;62.57
64844;BME280;51310;52.198;5.422;2023-07-22T08:28:37;101140.31;;;19.76;61.68
64844;BME280;51310;52.198;5.422;2023-07-22T08:31:03;101119.09;;;19.62;61.20
64844;BME280;51310;52.198;5.422;2023-07-22T08:33:30;101136.41;;;19.88;60.99
64844;BME280;51310;52.198;5.422;2023-07-22T08:35:56;101139.38;;;19.95;60.85
64844;BME280;51310;52.198;5.422;2023-07-22T08:38:22;101144.50;;;19.98;59.89
64844;BME280;51310;52.198;5.422;2023-07-22T08:40:50;101121.19;;;19.78;60.53
64844;BME280;51310;52.198;5.422;2023-07-22T08:43:22;101134.44;;;19.81;58.19
64844;BME280;51310;52.198;5.422;2023-07-22T08:45:52;101142.28;;;19.84;59.89
64844;BME280;51310;52.198;5.422;2023-07-22T08:48:22;101125.72;;;19.87;59.80
64844;BME280;51310;52.198;5.422;2023-07-22T08:51:07;101133.91;;;20.05;59.94
64844;BME280;51310;52.198;5.422;2023-07-22T08:53:38;101132.13;;;20.13;60.08
64844;BME280;51310;52.198;5.422;2023-07-22T08:56:04;101134.91;;;20.22;60.06
64844;BME280;51310;52.198;5.422;2023-07-22T08:58:31;101138.50;;;20.22;59.68
64844;BME280;51310;52.198;5.422;2023-07-22T09:00:58;101139.78;;;20.46;59.84
64844;BME280;51310;52.198;5.422;2023-07-22T09:03:25;101131.72;;;20.54;58.90
64844;BME280;51310;52.198;5.422;2023-07-22T09:05:51;101147.06;;;20.45;57.57
64844;BME280;51310;52.198;5.422;2023-07-22T09:08:18;101132.69;;;20.35;57.05
64844;BME280;51310;52.198;5.422;2023-07-22T09:10:45;101133.22;;;20.21;58.38
64844;BME280;51310;52.198;5.422;2023-07-22T09:13:13;101140.06;;;20.25;58.24
64844;BME280;51310;52.198;5.422;2023-07-22T09:15:40;101124.63;;;20.25;58.32
64844;BME280;51310;52.198;5.422;2023-07-22T09:18:06;101122.53;;;20.37;57.80
64844;BME280;51310;52.198;5.422;2023-07-22T09:20:33;101133.97;;;20.41;56.83
64844;BME280;51310;52.198;5.422;2023-07-22T09:23:00;101136.59;;;20.50;56.69
64844;BME280;51310;52.198;5.422;2023-07-22T09:25:28;101128.78;;;20.47;56.30
64844;BME280;51310;52.198;5.422;2023-07-22T09:27:57;101138.06;;;20.45;56.56
64844;BME280;51310;52.198;5.422;2023-07-22T09:30:37;101136.66;;;20.23;56.87
64844;BME280;51310;52.198;5.422;2023-07-22T09:33:06;101128.78;;;20.20;57.28
64844;BME280;51310;52.198;5.422;2023-07-22T09:35:48;101113.94;;;19.96;57.02
64844;BME280;51310;52.198;5.422;2023-07-22T09:38:23;101138.72;;;20.11;57.62
64844;BME280;51310;52.198;5.422;2023-07-22T09:40:51;101128.34;;;20.06;57.99
64844;BME280;51310;52.198;5.422;2023-07-22T09:43:17;101110.00;;;20.08;57.53
64844;BME280;51310;52.198;5.422;2023-07-22T09:45:47;101122.38;;;20.21;57.10
64844;BME280;51310;52.198;5.422;2023-07-22T09:48:14;101138.72;;;20.11;56.98
64844;BME280;51310;52.198;5.422;2023-07-22T09:50:40;101132.13;;;19.86;57.54
64844;BME280;51310;52.198;5.422;2023-07-22T09:53:06;101129.47;;;19.66;57.81
64844;BME280;51310;52.198;5.422;2023-07-22T09:55:33;101128.78;;;19.64;57.70
64844;BME280;51310;52.198;5.422;2023-07-22T09:58:04;101127.75;;;19.65;57.36
64844;BME280;51310;52.198;5.422;2023-07-22T10:00:36;101125.84;;;19.48;58.23
64844;BME280;51310;52.198;5.422;2023-07-22T10:03:07;101131.72;;;19.43;58.40
64844;BME280;51310;52.198;5.422;2023-07-22T10:05:38;101115.31;;;19.35;57.26
64844;BME280;51310;52.198;5.422;2023-07-22T10:08:06;101111.47;;;19.38;57.41
64844;BME280;51310;52.198;5.422;2023-07-22T10:10:35;101107.00;;;19.46;57.38
64844;BME280;51310;52.198;5.422;2023-07-22T10:13:04;101099.00;;;19.45;57.04
64844;BME280;51310;52.198;5.422;2023-07-22T10:15:33;101128.06;;;19.62;57.52
64844;BME280;51310;52.198;5.422;2023-07-22T10:18:01;101120.94;;;19.71;57.33
64844;BME280;51310;52.198;5.422;2023-07-22T10:20:30;101092.88;;;19.52;57.65
64844;BME280;51310;52.198;5.422;2023-07-22T10:23:01;101128.56;;;19.85;56.88
64844;BME280;51310;52.198;5.422;2023-07-22T10:25:27;101123.00;;;19.87;56.99
64844;BME280;51310;52.198;5.422;2023-07-22T10:27:54;101109.19;;;19.80;57.08
64844;BME280;51310;52.198;5.422;2023-07-22T10:30:20;101121.97;;;19.88;57.36
64844;BME280;51310;52.198;5.422;2023-07-22T10:32:52;101123.78;;;19.97;57.45
64844;BME280;51310;52.198;5.422;2023-07-22T10:38:11;101120.63;;;19.74;56.56
64844;BME280;51310;52.198;5.422;2023-07-22T10:40:50;101119.47;;;19.76;56.53
64844;BME280;51310;52.198;5.422;2023-07-22T10:43:33;101126.22;;;19.72;56.31
64844;BME280;51310;52.198;5.422;2023-07-22T10:46:10;101105.84;;;19.49;56.76
64844;BME280;51310;52.198;5.422;2023-07-22T10:48:41;101123.78;;;19.69;57.09
64844;BME280;51310;52.198;5.422;2023-07-22T10:51:12;101128.03;;;19.82;56.99
64844;BME280;51310;52.198;5.422;2023-07-22T10:53:44;101120.16;;;19.79;56.94
64844;BME280;51310;52.198;5.422;2023-07-22T11:06:38;101115.84;;;19.48;58.80
64844;BME280;51310;52.198;5.422;2023-07-22T11:12:18;101118.69;;;19.47;60.62
64844;BME280;51310;52.198;5.422;2023-07-22T11:15:03;101128.69;;;19.46;58.27
64844;BME280;51310;52.198;5.422;2023-07-22T11:17:32;101124.88;;;19.39;59.60
64844;BME280;51310;52.198;5.422;2023-07-22T11:19:59;101146.56;;;19.29;60.03
64844;BME280;51310;52.198;5.422;2023-07-22T11:22:27;101158.16;;;18.92;61.51
64844;BME280;51310;52.198;5.422;2023-07-22T11:24:56;101158.84;;;18.05;65.15
64844;BME280;51310;52.198;5.422;2023-07-22T11:27:23;101147.22;;;17.53;67.41
64844;BME280;51310;52.198;5.422;2023-07-22T11:29:49;101117.16;;;16.95;68.78
64844;BME280;51310;52.198;5.422;2023-07-22T11:32:17;101136.88;;;16.74;70.27
64844;BME280;51310;52.198;5.422;2023-07-22T11:34:46;101126.72;;;16.67;71.33
64844;BME280;51310;52.198;5.422;2023-07-22T11:37:13;101152.63;;;16.58;72.85
64844;BME280;51310;52.198;5.422;2023-07-22T11:39:40;101135.34;;;16.17;75.69
64844;BME280;51310;52.198;5.422;2023-07-22T11:42:08;101126.03;;;15.98;77.51
64844;BME280;51310;52.198;5.422;2023-07-22T11:44:34;101102.41;;;15.91;78.37
64844;BME280;51310;52.198;5.422;2023-07-22T11:47:07;101114.00;;;16.14;78.70
64844;BME280;51310;52.198;5.422;2023-07-22T11:49:41;101101.72;;;16.21;79.12
64844;BME280;51310;52.198;5.422;2023-07-22T11:52:17;101127.31;;;16.70;79.00
64844;BME280;51310;52.198;5.422;2023-07-22T11:54:45;101127.97;;;16.95;77.53
64844;BME280;51310;52.198;5.422;2023-07-22T11:57:16;101107.69;;;17.00;76.52
64844;BME280;51310;52.198;5.422;2023-07-22T11:59:47;101122.75;;;17.24;75.19
64844;BME280;51310;52.198;5.422;2023-07-22T12:02:22;101111.03;;;17.35;75.04
64844;BME280;51310;52.198;5.422;2023-07-22T12:05:02;101100.22;;;17.35;74.52
64844;BME280;51310;52.198;5.422;2023-07-22T12:07:36;101112.47;;;17.39;73.98
64844;BME280;51310;52.198;5.422;2023-07-22T12:10:05;101123.75;;;17.23;74.10
64844;BME280;51310;52.198;5.422;2023-07-22T12:12:38;101133.19;;;16.87;75.09
64844;BME280;51310;52.198;5.422;2023-07-22T12:15:12;101139.72;;;16.61;76.58
64844;BME280;51310;52.198;5.422;2023-07-22T12:17:58;101113.50;;;16.20;77.63
64844;BME280;51310;52.198;5.422;2023-07-22T12:20:33;101132.84;;;16.25;79.20
64844;BME280;51310;52.198;5.422;2023-07-22T12:23:00;101130.66;;;16.30;79.50
64844;BME280;51310;52.198;5.422;2023-07-22T12:25:27;101136.38;;;16.37;79.72
64844;BME280;51310;52.198;5.422;2023-07-22T12:27:53;101129.13;;;16.49;80.31
64844;BME280;51310;52.198;5.422;2023-07-22T12:30:19;101126.91;;;16.54;79.99
64844;BME280;51310;52.198;5.422;2023-07-22T12:32:46;101115.00;;;16.56;80.17
64844;BME280;51310;52.198;5.422;2023-07-22T12:35:12;101099.13;;;16.63;79.97
64844;BME280;51310;52.198;5.422;2023-07-22T12:37:39;101122.78;;;16.82;78.94
64844;BME280;51310;52.198;5.422;2023-07-22T12:40:05;101114.75;;;16.92;78.24
64844;BME280;51310;52.198;5.422;2023-07-22T12:42:37;101101.25;;;16.92;78.47
64844;BME280;51310;52.198;5.422;2023-07-22T12:45:04;101124.41;;;17.15;77.77
64844;BME280;51310;52.198;5.422;2023-07-22T12:47:31;101118.59;;;17.20;76.70
64844;BME280;51310;52.198;5.422;2023-07-22T12:49:57;101120.06;;;17.24;76.47
64844;BME280;51310;52.198;5.422;2023-07-22T12:52:23;101119.47;;;17.20;76.35
64844;BME280;51310;52.198;5.422;2023-07-22T12:54:49;101108.81;;;17.19;76.54
64844;BME280;51310;52.198;5.422;2023-07-22T12:57:15;101108.41;;;17.23;76.74
64844;BME280;51310;52.198;5.422;2023-07-22T12:59:41;101113.81;;;17.23;76.63
64844;BME280;51310;52.198;5.422;2023-07-22T13:02:07;101114.13;;;17.30;76.22
64844;BME280;51310;52.198;5.422;2023-07-22T13:04:32;101109.16;;;17.35;75.86
64844;BME280;51310;52.198;5.422;2023-07-22T13:06:58;101114.91;;;17.42;75.86
64844;BME280;51310;52.198;5.422;2023-07-22T13:09:24;101113.97;;;17.53;75.80